createdAt,value
2023-01-13T00:02:03.963Z,100.00
2023-01-13T00:04:36.085Z,100.00
2023-01-13T00:07:08.207Z,100.00
2023-01-13T00:09:40.274Z,100.00
2023-01-13T00:12:12.307Z,100.00
2023-01-13T00:14:44.413Z,100.00
2023-01-13T00:17:16.527Z,100.00
2023-01-13T00:19:48.646Z,100.00
2023-01-13T00:22:20.637Z,100.00
2023-01-13T00:24:52.645Z,100.00
2023-01-13T00:27:25.466Z,100.00
2023-01-13T00:29:57.626Z,100.00
2023-01-13T00:32:29.740Z,100.00
2023-01-13T00:35:01.862Z,100.00
2023-01-13T00:37:38.325Z,100.00
2023-01-13T00:40:11.537Z,100.00
2023-01-13T00:43:01.852Z,100.00
2023-01-13T00:45:34.249Z,100.00
2023-01-13T00:48:06.285Z,100.00
2023-01-13T00:50:38.265Z,100.00
2023-01-13T00:53:10.319Z,100.00
2023-01-13T00:55:42.400Z,100.00
2023-01-13T00:58:14.563Z,100.00
2023-01-13T01:00:46.592Z,100.00
2023-01-13T01:03:18.639Z,100.00
2023-01-13T01:05:50.641Z,100.00
2023-01-13T01:08:22.977Z,100.00
2023-01-13T01:11:07.429Z,100.00
2023-01-13T01:13:39.977Z,100.00
2023-01-13T01:16:15.670Z,100.00
2023-01-13T01:18:50.286Z,100.00
2023-01-13T01:21:24.269Z,100.00
2023-01-13T01:24:00.142Z,100.00
2023-01-13T01:26:32.616Z,100.00
2023-01-13T01:29:04.729Z,100.00
2023-01-13T01:31:36.752Z,100.00
2023-01-13T01:34:08.883Z,100.00
2023-01-13T01:36:41.431Z,100.00
2023-01-13T01:39:13.442Z,100.00
2023-01-13T01:42:05.492Z,100.00
2023-01-13T01:44:43.561Z,100.00
2023-01-13T01:47:18.306Z,100.00
2023-01-13T01:49:50.836Z,100.00
2023-01-13T01:52:34.679Z,100.00
2023-01-13T01:55:20.805Z,100.00
2023-01-13T01:58:03.369Z,100.00
2023-01-13T02:00:35.391Z,100.00
2023-01-13T02:03:09.293Z,100.00
2023-01-13T02:05:41.762Z,100.00
2023-01-13T02:08:14.936Z,100.00
2023-01-13T02:10:53.590Z,100.00
2023-01-13T02:13:25.685Z,100.00
2023-01-13T02:16:17.410Z,100.00
2023-01-13T02:19:05.224Z,100.00
2023-01-13T02:22:13.252Z,100.00
2023-01-13T02:25:36.385Z,100.00
2023-01-13T02:29:06.017Z,100.00
2023-01-13T02:31:42.576Z,100.00
2023-01-13T02:34:26.512Z,100.00
2023-01-13T02:37:03.581Z,100.00
2023-01-13T02:39:56.306Z,100.00
2023-01-13T02:42:53.809Z,100.00
2023-01-13T02:45:32.849Z,100.00
2023-01-13T02:48:08.269Z,100.00
2023-01-13T02:51:09.667Z,100.00
2023-01-13T02:53:57.777Z,100.00
2023-01-13T02:56:32.962Z,100.00
2023-01-13T02:59:06.517Z,100.00
2023-01-13T03:01:38.790Z,100.00
2023-01-13T03:04:35.818Z,100.00
2023-01-13T03:07:17.462Z,100.00
2023-01-13T03:10:11.894Z,100.00
2023-01-13T03:13:19.568Z,100.00
2023-01-13T03:16:28.715Z,100.00
2023-01-13T03:19:41.716Z,100.00
2023-01-13T03:22:31.904Z,100.00
2023-01-13T03:25:19.038Z,100.00
2023-01-13T03:28:03.601Z,100.00
2023-01-13T03:30:48.822Z,100.00
2023-01-13T03:33:29.896Z,100.00
2023-01-13T03:36:09.520Z,100.00
2023-01-13T03:38:51.242Z,100.00
2023-01-13T03:41:39.182Z,100.00
2023-01-13T03:44:28.149Z,100.00
2023-01-13T03:47:16.245Z,100.00
2023-01-13T03:50:13.879Z,100.00
2023-01-13T03:53:02.100Z,100.00
2023-01-13T03:55:39.574Z,100.00
2023-01-13T03:58:23.681Z,100.00
2023-01-13T04:01:11.655Z,100.00
2023-01-13T04:04:05.829Z,99.05
2023-01-13T04:06:55.693Z,99.67
2023-01-13T04:09:50.834Z,99.70
2023-01-13T04:12:49.385Z,99.58
2023-01-13T04:15:24.966Z,98.93
2023-01-13T04:18:10.864Z,98.78
2023-01-13T04:20:45.933Z,97.92
2023-01-13T04:23:19.799Z,97.26
2023-01-13T04:25:52.276Z,96.30
2023-01-13T04:28:25.477Z,97.34
2023-01-13T04:30:57.847Z,96.73
2023-01-13T04:33:29.868Z,97.11
2023-01-13T04:36:01.783Z,96.58
2023-01-13T04:38:33.769Z,96.56
2023-01-13T04:41:05.974Z,95.79
2023-01-13T04:43:37.936Z,95.80
2023-01-13T04:46:09.933Z,95.95
2023-01-13T04:48:42.024Z,95.40
2023-01-13T04:51:14.020Z,95.84
2023-01-13T04:53:46.937Z,94.94
2023-01-13T04:56:19.055Z,95.20
2023-01-13T04:58:51.158Z,94.97
2023-01-13T05:01:23.138Z,95.10
2023-01-13T05:03:55.176Z,95.64
2023-01-13T05:06:27.232Z,95.46
2023-01-13T05:08:59.504Z,95.91
2023-01-13T05:11:49.795Z,95.52
2023-01-13T05:14:40.108Z,95.55
2023-01-13T05:17:21.201Z,95.10
2023-01-13T05:19:53.220Z,95.33
2023-01-13T05:22:43.466Z,95.01
2023-01-13T05:25:28.288Z,95.91
2023-01-13T05:28:00.723Z,95.91
2023-01-13T05:30:38.524Z,94.56
2023-01-13T05:33:17.087Z,93.83
2023-01-13T05:35:49.755Z,93.41
2023-01-13T05:38:21.834Z,93.43
2023-01-13T05:41:12.161Z,93.16
2023-01-13T05:43:44.075Z,92.64
2023-01-13T05:46:17.825Z,92.63
2023-01-13T05:48:50.014Z,93.36
2023-01-13T05:51:26.377Z,94.28
2023-01-13T05:53:59.294Z,93.52
2023-01-13T05:56:31.265Z,92.92
2023-01-13T05:59:03.708Z,93.23
2023-01-13T06:01:37.236Z,92.62
2023-01-13T06:04:09.289Z,92.67
2023-01-13T06:06:43.219Z,91.72
2023-01-13T06:09:15.483Z,92.11
2023-01-13T06:11:48.580Z,91.95
2023-01-13T06:14:20.618Z,91.02
2023-01-13T06:16:52.583Z,91.61
2023-01-13T06:19:24.535Z,91.89
2023-01-13T06:21:58.018Z,91.50
2023-01-13T06:24:29.964Z,91.83
2023-01-13T06:27:01.980Z,90.49
2023-01-13T06:29:34.163Z,90.84
2023-01-13T06:32:14.093Z,90.26
2023-01-13T06:34:53.495Z,90.05
2023-01-13T06:37:26.751Z,90.04
2023-01-13T06:40:01.996Z,90.68
2023-01-13T06:42:55.263Z,90.57
2023-01-13T06:45:29.170Z,89.48
2023-01-13T06:48:01.271Z,89.46
2023-01-13T06:50:33.233Z,89.48
2023-01-13T06:53:05.263Z,88.66
2023-01-13T06:55:37.573Z,89.25
2023-01-13T06:58:09.714Z,88.84
2023-01-13T07:00:41.866Z,88.50
2023-01-13T07:03:16.318Z,88.17
2023-01-13T07:05:54.082Z,88.71
2023-01-13T07:08:26.216Z,89.26
2023-01-13T07:10:58.314Z,88.93
2023-01-13T07:13:49.197Z,88.55
2023-01-13T07:16:21.158Z,88.87
2023-01-13T07:18:53.144Z,89.06
2023-01-13T07:21:25.061Z,89.42
2023-01-13T07:23:57.876Z,89.67
2023-01-13T07:26:29.944Z,89.30
2023-01-13T07:29:01.920Z,89.97
2023-01-13T07:31:33.910Z,89.63
2023-01-13T07:34:07.435Z,89.89
2023-01-13T07:36:42.496Z,90.00
2023-01-13T07:39:14.539Z,89.60
2023-01-13T07:42:05.365Z,89.93
2023-01-13T07:44:38.105Z,90.02
2023-01-13T07:47:11.433Z,89.77
2023-01-13T07:49:43.457Z,89.85
2023-01-13T07:52:15.580Z,90.13
2023-01-13T07:54:47.557Z,90.21
2023-01-13T07:57:19.585Z,89.69
2023-01-13T07:59:51.576Z,89.33
2023-01-13T08:02:23.886Z,88.76
2023-01-13T08:04:56.009Z,88.25
2023-01-13T08:07:28.006Z,88.57
2023-01-13T08:10:00.138Z,88.16
2023-01-13T08:12:53.540Z,87.47
2023-01-13T08:15:29.879Z,87.02
2023-01-13T08:18:01.841Z,86.66
2023-01-13T08:20:34.751Z,86.63
2023-01-13T08:23:07.479Z,86.52
2023-01-13T08:25:39.651Z,85.44
2023-01-13T08:28:13.154Z,84.80
2023-01-13T08:30:45.389Z,84.52
2023-01-13T08:33:17.681Z,84.56
2023-01-13T08:35:52.763Z,83.88
2023-01-13T08:38:25.359Z,83.47
2023-01-13T08:40:57.714Z,83.53
2023-01-13T08:43:29.731Z,83.70
2023-01-13T08:46:05.013Z,83.46
2023-01-13T08:48:37.952Z,83.14
2023-01-13T08:51:11.195Z,83.84
2023-01-13T08:53:43.196Z,82.64
2023-01-13T08:56:15.426Z,82.58
2023-01-13T08:58:47.405Z,83.02
2023-01-13T09:01:23.632Z,81.85
2023-01-13T09:03:55.829Z,81.89
2023-01-13T09:06:27.918Z,81.98
2023-01-13T09:09:00.441Z,81.32
2023-01-13T09:11:55.984Z,80.79
2023-01-13T09:14:32.376Z,81.76
2023-01-13T09:17:04.761Z,82.29
2023-01-13T09:19:37.455Z,82.15
2023-01-13T09:22:15.812Z,81.65
2023-01-13T09:24:47.777Z,81.95
2023-01-13T09:27:20.772Z,81.29
2023-01-13T09:29:52.741Z,81.36
2023-01-13T09:32:24.918Z,82.04
2023-01-13T09:35:00.049Z,80.71
2023-01-13T09:37:36.179Z,81.13
2023-01-13T09:40:19.555Z,81.20
2023-01-13T09:43:15.447Z,81.49
2023-01-13T09:45:54.972Z,81.19
2023-01-13T09:48:52.258Z,80.88
2023-01-13T09:51:34.078Z,81.26
2023-01-13T09:54:28.267Z,80.56
2023-01-13T09:57:01.231Z,80.91
2023-01-13T09:59:36.537Z,81.13
2023-01-13T10:02:34.498Z,81.07
2023-01-13T10:05:20.552Z,81.71
2023-01-13T10:08:04.613Z,80.78
2023-01-13T10:10:48.993Z,81.18
2023-01-13T10:13:31.823Z,81.10
2023-01-13T10:16:19.024Z,80.88
2023-01-13T10:19:31.215Z,80.48
2023-01-13T10:22:21.308Z,81.70
2023-01-13T10:25:24.056Z,84.02
2023-01-13T10:28:04.294Z,89.42
2023-01-13T10:30:40.242Z,95.38
2023-01-13T10:33:41.779Z,100.00
2023-01-13T10:36:23.084Z,100.00
2023-01-13T10:39:16.015Z,100.00
2023-01-13T10:41:48.057Z,100.00
2023-01-13T10:44:20.059Z,100.00
2023-01-13T10:46:58.395Z,100.00
2023-01-13T10:49:39.036Z,100.00
2023-01-13T10:52:40.064Z,100.00
2023-01-13T10:55:26.079Z,100.00
2023-01-13T10:58:29.666Z,100.00
2023-01-13T11:01:44.201Z,100.00
2023-01-13T11:04:45.369Z,100.00
2023-01-13T11:07:34.093Z,100.00
2023-01-13T11:10:32.640Z,100.00
2023-01-13T11:13:14.631Z,100.00
2023-01-13T11:16:02.057Z,100.00
2023-01-13T11:19:02.619Z,100.00
2023-01-13T11:25:01.613Z,100.00
2023-01-13T11:28:04.371Z,100.00
2023-01-13T11:30:45.615Z,100.00
2023-01-13T11:33:45.518Z,100.00
2023-01-13T11:36:25.333Z,99.68
2023-01-13T11:39:28.602Z,97.80
2023-01-13T11:42:22.460Z,97.92
2023-01-13T11:45:17.051Z,96.80
2023-01-13T11:47:52.758Z,96.26
2023-01-13T11:50:51.205Z,96.71
2023-01-13T11:53:29.023Z,96.25
2023-01-13T11:56:56.047Z,95.99
2023-01-13T12:00:21.339Z,95.16
2023-01-13T12:03:25.593Z,94.42
2023-01-13T12:06:28.451Z,95.06
2023-01-13T12:09:44.759Z,96.36
2023-01-13T12:12:37.465Z,99.27
2023-01-13T12:15:24.346Z,100.00
2023-01-13T12:18:35.888Z,100.00
2023-01-13T12:21:20.642Z,100.00
2023-01-13T12:24:03.780Z,100.00
2023-01-13T12:26:42.149Z,100.00
2023-01-13T12:29:20.356Z,100.00
2023-01-13T12:31:53.629Z,100.00
2023-01-13T12:35:06.856Z,100.00
2023-01-13T12:38:35.831Z,100.00
2023-01-13T12:42:09.129Z,100.00
2023-01-13T12:45:08.133Z,100.00
2023-01-13T12:47:45.629Z,100.00
2023-01-13T12:50:40.884Z,100.00
2023-01-13T12:53:33.869Z,100.00
2023-01-13T12:56:30.823Z,99.85
2023-01-13T12:59:28.806Z,100.00
2023-01-13T13:02:13.246Z,99.70
2023-01-13T13:04:52.057Z,98.59
2023-01-13T13:07:41.003Z,97.81
2023-01-13T13:10:12.909Z,97.05
2023-01-13T13:13:03.838Z,96.89
2023-01-13T13:15:39.979Z,96.85
2023-01-13T13:18:18.062Z,97.07
2023-01-13T13:21:09.374Z,95.96
2023-01-13T13:24:05.882Z,96.82
2023-01-13T13:26:46.205Z,94.77
2023-01-13T13:29:35.446Z,95.60
2023-01-13T13:32:19.762Z,96.84
2023-01-13T13:35:14.417Z,97.73
2023-01-13T13:38:22.625Z,97.16
2023-01-13T13:41:13.590Z,97.91
2023-01-13T13:44:04.975Z,99.28
2023-01-13T13:46:54.060Z,100.00
2023-01-13T13:50:16.851Z,100.00
2023-01-13T13:53:08.443Z,100.00
2023-01-13T13:55:53.222Z,100.00
2023-01-13T13:58:29.151Z,100.00
2023-01-13T14:01:10.691Z,100.00
2023-01-13T14:03:43.259Z,100.00
2023-01-13T14:06:24.418Z,100.00
2023-01-13T14:08:56.349Z,100.00
2023-01-13T14:11:37.915Z,100.00
2023-01-13T14:14:19.007Z,100.00
2023-01-13T14:19:46.253Z,98.65
2023-01-13T14:22:18.518Z,99.01
2023-01-13T14:24:55.799Z,98.93
2023-01-13T14:27:30.484Z,98.78
2023-01-13T14:30:03.050Z,97.95
2023-01-13T14:32:38.086Z,97.78
2023-01-13T14:35:16.535Z,96.48
2023-01-13T14:37:54.418Z,96.31
2023-01-13T14:40:40.708Z,94.72
2023-01-13T14:43:16.839Z,94.15
2023-01-13T14:46:01.747Z,94.40
2023-01-13T14:48:41.223Z,94.97
2023-01-13T14:51:24.014Z,96.75
2023-01-13T14:53:58.203Z,98.58
2023-01-13T14:56:49.653Z,98.47
2023-01-13T14:59:44.781Z,96.98
2023-01-13T15:02:33.522Z,95.61
2023-01-13T15:05:19.019Z,95.69
2023-01-13T15:08:14.064Z,93.74
2023-01-13T15:11:00.113Z,95.04
2023-01-13T15:13:36.008Z,94.28
2023-01-13T15:16:27.424Z,94.75
2023-01-13T15:19:00.105Z,94.96
2023-01-13T15:21:33.661Z,95.48
2023-01-13T15:24:07.967Z,96.15
2023-01-13T15:26:40.664Z,95.74
2023-01-13T15:29:15.449Z,95.49
2023-01-13T15:31:48.194Z,95.29
2023-01-13T15:34:20.998Z,94.77
2023-01-13T15:36:52.995Z,95.37
2023-01-13T15:39:24.939Z,95.47
2023-01-13T15:42:15.864Z,95.42
2023-01-13T15:45:06.316Z,94.47
2023-01-13T15:47:38.373Z,94.32
2023-01-13T15:50:18.463Z,92.99
2023-01-13T15:52:56.916Z,93.65
2023-01-13T15:55:38.255Z,93.51
2023-01-13T15:58:19.175Z,93.81
2023-01-13T16:00:53.520Z,93.10
2023-01-13T16:03:27.648Z,93.51
2023-01-13T16:05:59.612Z,92.87
2023-01-13T16:08:34.262Z,93.70
2023-01-13T16:11:07.601Z,94.25
2023-01-13T16:13:39.759Z,93.16
2023-01-13T16:16:24.847Z,93.52
2023-01-13T16:18:57.715Z,92.97
2023-01-13T16:21:30.338Z,92.47
2023-01-13T16:24:22.623Z,93.31
2023-01-13T16:26:55.285Z,93.54
2023-01-13T16:29:27.546Z,93.25
2023-01-13T16:32:00.227Z,93.91
2023-01-13T16:34:35.145Z,94.17
2023-01-13T16:37:26.457Z,92.95
2023-01-13T16:40:01.984Z,93.16
2023-01-13T16:42:34.255Z,92.68
2023-01-13T16:45:12.677Z,92.22
2023-01-13T16:47:45.193Z,93.17
2023-01-13T16:50:33.726Z,93.65
2023-01-13T16:53:09.384Z,93.89
2023-01-13T16:55:48.459Z,95.26
2023-01-13T16:58:22.006Z,95.42
2023-01-13T17:01:21.114Z,94.49
2023-01-13T17:03:55.280Z,94.18
2023-01-13T17:06:33.400Z,95.07
2023-01-13T17:09:20.428Z,95.78
2023-01-13T17:11:54.388Z,94.84
2023-01-13T17:17:32.269Z,94.32
2023-01-13T17:20:06.848Z,94.41
2023-01-13T17:22:39.652Z,94.12
2023-01-13T17:25:15.395Z,93.50
2023-01-13T17:27:49.932Z,93.54
2023-01-13T17:30:22.671Z,93.65
2023-01-13T17:32:55.976Z,96.78
2023-01-13T17:35:34.460Z,97.34
2023-01-13T17:38:07.742Z,99.27
2023-01-13T17:41:31.152Z,100.00
2023-01-13T17:44:06.313Z,100.00
2023-01-13T17:46:42.359Z,100.00
2023-01-13T17:49:17.536Z,100.00
2023-01-13T17:51:52.343Z,100.00
2023-01-13T17:54:30.954Z,100.00
2023-01-13T17:57:04.146Z,100.00
2023-01-13T17:59:38.730Z,100.00
2023-01-13T18:02:33.476Z,100.00
2023-01-13T18:05:06.054Z,100.00
2023-01-13T18:07:38.443Z,100.00
2023-01-13T18:13:57.297Z,100.00
2023-01-13T18:16:31.695Z,100.00
2023-01-13T18:19:23.119Z,100.00
2023-01-13T18:22:13.863Z,100.00
2023-01-13T18:25:04.964Z,100.00
2023-01-13T18:27:40.570Z,100.00
2023-01-13T18:30:15.073Z,100.00
2023-01-13T18:32:51.838Z,100.00
2023-01-13T18:35:24.016Z,100.00
2023-01-13T18:37:55.969Z,100.00
2023-01-13T18:40:27.953Z,100.00
2023-01-13T18:43:00.712Z,100.00
2023-01-13T18:45:32.885Z,100.00
2023-01-13T18:48:07.073Z,100.00
2023-01-13T18:51:25.163Z,100.00
2023-01-13T18:53:57.510Z,100.00
2023-01-13T18:56:44.883Z,100.00
2023-01-13T19:00:00.351Z,100.00
2023-01-13T19:03:09.378Z,100.00
2023-01-13T19:05:46.835Z,100.00
2023-01-13T19:08:19.016Z,100.00
2023-01-13T19:11:49.469Z,100.00
2023-01-13T19:17:17.137Z,100.00
2023-01-13T19:22:57.309Z,100.00
2023-01-13T19:25:29.390Z,100.00
2023-01-13T19:28:01.368Z,100.00
2023-01-13T19:30:33.325Z,100.00
2023-01-13T19:33:05.288Z,100.00
2023-01-13T19:35:37.832Z,100.00
2023-01-13T19:38:27.014Z,100.00
2023-01-13T19:44:52.328Z,100.00
2023-01-13T19:47:24.361Z,100.00
2023-01-13T19:49:58.400Z,100.00
2023-01-13T19:52:36.085Z,100.00
2023-01-13T19:58:05.663Z,100.00
2023-01-13T20:00:57.718Z,100.00
2023-01-13T20:03:38.626Z,100.00
2023-01-13T20:06:10.979Z,100.00
2023-01-13T20:08:46.180Z,100.00
2023-01-13T20:11:28.236Z,100.00
2023-01-13T20:15:02.122Z,100.00
2023-01-13T20:17:49.040Z,100.00
2023-01-13T20:20:22.808Z,100.00
2023-01-13T20:26:51.772Z,100.00
2023-01-13T20:29:24.163Z,100.00
2023-01-13T20:31:57.904Z,100.00
2023-01-13T20:34:30.225Z,100.00
2023-01-13T20:37:02.277Z,100.00
2023-01-13T20:39:44.758Z,100.00
2023-01-13T20:45:04.595Z,100.00
2023-01-13T20:47:38.643Z,100.00
2023-01-13T20:50:13.195Z,100.00
2023-01-13T20:52:47.770Z,100.00
2023-01-13T20:55:19.847Z,100.00
2023-01-13T20:57:52.985Z,100.00
2023-01-13T21:00:25.239Z,100.00
2023-01-13T21:02:57.249Z,100.00
2023-01-13T21:08:15.486Z,100.00
2023-01-13T21:10:50.013Z,100.00
2023-01-13T21:13:42.120Z,100.00
2023-01-13T21:16:24.074Z,100.00
2023-01-13T21:19:10.666Z,100.00
2023-01-13T21:22:20.025Z,100.00
2023-01-13T21:25:02.572Z,100.00
2023-01-13T21:30:27.742Z,100.00
2023-01-13T21:33:00.926Z,100.00
2023-01-13T21:35:35.035Z,100.00
2023-01-13T21:38:08.843Z,100.00
2023-01-13T21:40:42.892Z,100.00
2023-01-13T21:43:33.295Z,100.00
2023-01-13T21:46:30.948Z,100.00
2023-01-13T21:49:03.414Z,100.00
2023-01-13T21:51:35.726Z,100.00
2023-01-13T21:54:09.332Z,100.00
2023-01-13T21:56:41.321Z,100.00
2023-01-13T21:59:20.565Z,100.00
2023-01-13T22:02:24.154Z,100.00
2023-01-13T22:05:02.609Z,100.00
2023-01-13T22:07:37.818Z,100.00
2023-01-13T22:10:15.016Z,100.00
2023-01-13T22:12:48.288Z,100.00
2023-01-13T22:18:07.352Z,100.00
2023-01-13T22:20:42.108Z,100.00
2023-01-13T22:23:14.185Z,100.00
2023-01-13T22:25:46.314Z,100.00
2023-01-13T22:28:24.109Z,100.00
2023-01-13T22:30:56.181Z,100.00
2023-01-13T22:33:28.521Z,100.00
2023-01-13T22:36:12.570Z,100.00
2023-01-13T22:38:46.369Z,100.00
2023-01-13T22:41:24.862Z,100.00
2023-01-13T22:44:29.152Z,100.00
2023-01-13T22:47:57.073Z,100.00
2023-01-13T22:50:31.662Z,100.00
2023-01-13T22:53:03.739Z,100.00
2023-01-13T22:59:37.885Z,100.00
2023-01-13T23:02:09.885Z,100.00
2023-01-13T23:07:37.758Z,100.00
2023-01-13T23:10:10.571Z,100.00
2023-01-13T23:12:43.348Z,100.00
2023-01-13T23:15:15.482Z,100.00
2023-01-13T23:17:56.678Z,100.00
2023-01-13T23:20:32.555Z,100.00
2023-01-13T23:23:05.585Z,100.00
2023-01-13T23:25:37.598Z,100.00
2023-01-13T23:28:11.210Z,100.00
2023-01-13T23:30:43.437Z,100.00
2023-01-13T23:33:16.397Z,100.00
2023-01-13T23:36:05.724Z,100.00
2023-01-13T23:38:38.508Z,100.00
2023-01-13T23:41:14.956Z,100.00
2023-01-13T23:43:53.148Z,100.00
2023-01-13T23:46:30.430Z,100.00
2023-01-13T23:49:06.115Z,100.00
2023-01-13T23:54:42.987Z,100.00
2023-01-13T23:57:17.085Z,100.00
2023-01-13T23:59:53.197Z,100.00
